Time,TemperatureF,DewpointF,PressureIn,WindDirection,WindDirectionDegrees,WindSpeedMPH,WindSpeedGustMPH,Humidity,HourlyPrecipIn,Conditions,Clouds,dailyrainin,SolarRadiationWatts/m^2,SoftwareType,DateUTC
2013-07-18 00:11:00,60.0,32.0,-100.00,SSW,201,0.0,4.0,34,0.00,,,0.00,0.000000,,2013-07-18 07:11:00,
2013-07-18 00:22:00,60.0,32.0,-100.00,SSW,201,0.0,4.0,34,0.00,,,0.00,0.000000,,2013-07-18 07:22:00,
2013-07-18 00:32:00,60.0,32.0,-100.00,SSW,201,0.0,4.0,34,0.00,,,0.00,0.000000,,2013-07-18 07:32:00,
2013-07-18 00:42:00,60.0,32.0,-100.00,SSW,201,0.0,4.0,34,0.00,,,0.00,0.000000,,2013-07-18 07:42:00,
2013-07-18 03:11:00,53.0,32.0,-100.00,ESE,106,0.0,0.0,44,-99.99,,,0.00,0.000000,,2013-07-18 10:11:00,
2013-07-18 03:21:00,53.0,32.0,-100.00,ESE,106,0.0,0.0,44,-99.99,,,0.00,0.000000,,2013-07-18 10:21:00,
2013-07-18 04:11:00,51.0,31.0,-100.00,South,180,0.0,0.0,47,0.00,,,0.00,0.000000,,2013-07-18 11:11:00,
2013-07-18 04:22:00,51.0,31.0,-100.00,South,180,0.0,0.0,47,0.00,,,0.00,0.000000,,2013-07-18 11:22:00,
2013-07-18 04:32:00,51.0,31.0,-100.00,South,180,0.0,0.0,47,0.00,,,0.00,0.000000,,2013-07-18 11:32:00,
2013-07-18 04:43:00,51.0,31.0,-100.00,South,180,0.0,0.0,47,0.00,,,0.00,0.000000,,2013-07-18 11:43:00,
2013-07-18 05:11:00,51.0,31.0,-100.00,South,173,0.0,0.0,47,-99.99,,,0.00,0.000000,,2013-07-18 12:11:00,
2013-07-18 05:22:00,51.0,31.0,-100.00,South,173,0.0,0.0,47,-99.99,,,0.00,0.000000,,2013-07-18 12:22:00,
2013-07-18 05:32:00,51.0,31.0,-100.00,South,173,0.0,0.0,47,-99.99,,,0.00,0.000000,,2013-07-18 12:32:00,
2013-07-18 05:42:00,51.0,31.0,-100.00,South,173,0.0,0.0,47,-99.99,,,0.00,0.000000,,2013-07-18 12:42:00,
2013-07-18 07:11:00,49.0,32.0,-100.00,South,186,0.0,0.0,52,0.00,,,0.00,16.000000,,2013-07-18 14:11:00,
2013-07-18 07:22:00,49.0,32.0,-100.00,South,186,0.0,0.0,52,0.00,,,0.00,16.000000,,2013-07-18 14:22:00,
2013-07-18 08:22:00,56.0,35.0,-100.00,WSW,255,0.0,0.0,45,-99.99,,,0.00,40.000000,,2013-07-18 15:22:00,
2013-07-18 08:32:00,56.0,35.0,-100.00,WSW,255,0.0,0.0,45,-99.99,,,0.00,40.000000,,2013-07-18 15:32:00,
2013-07-18 09:11:00,70.0,39.0,-100.00,West,279,0.0,0.0,32,-99.99,,,-99.99,246.000000,,2013-07-18 16:11:00,
2013-07-18 09:22:00,70.0,39.0,-100.00,West,279,0.0,0.0,32,-99.99,,,-99.99,246.000000,,2013-07-18 16:22:00,
2013-07-18 09:32:00,70.0,39.0,-100.00,West,279,0.0,0.0,32,-99.99,,,-99.99,246.000000,,2013-07-18 16:32:00,
2013-07-18 09:42:00,70.0,39.0,-100.00,West,279,0.0,0.0,32,-99.99,,,-99.99,246.000000,,2013-07-18 16:42:00,
2013-07-18 10:11:00,78.0,30.0,-100.00,NNW,330,0.0,5.0,17,0.00,,,-99.99,698.000000,,2013-07-18 17:11:00,
2013-07-18 10:22:00,78.0,30.0,-100.00,NNW,330,0.0,5.0,17,0.00,,,-99.99,698.000000,,2013-07-18 17:22:00,
2013-07-18 10:33:00,78.0,30.0,-100.00,NNW,330,0.0,5.0,17,0.00,,,-99.99,698.000000,,2013-07-18 17:33:00,
2013-07-18 10:43:00,78.0,30.0,-100.00,NNW,330,0.0,5.0,17,0.00,,,-99.99,698.000000,,2013-07-18 17:43:00,
2013-07-18 11:11:00,84.0,31.0,-100.00,NNE,31,3.0,10.0,15,0.00,,,0.00,949.000000,,2013-07-18 18:11:00,
2013-07-18 11:22:00,84.0,31.0,-100.00,NNE,31,3.0,10.0,15,0.00,,,0.00,949.000000,,2013-07-18 18:22:00,
2013-07-18 11:32:00,84.0,31.0,-100.00,NNE,31,3.0,10.0,15,0.00,,,0.00,949.000000,,2013-07-18 18:32:00,
2013-07-18 11:43:00,84.0,31.0,-100.00,NNE,31,3.0,10.0,15,0.00,,,0.00,949.000000,,2013-07-18 18:43:00,
2013-07-18 12:22:00,86.0,29.0,-100.00,NNW,330,5.0,10.0,13,0.00,,,0.00,1097.000000,,2013-07-18 19:22:00,
2013-07-18 12:32:00,86.0,29.0,-100.00,NNW,330,5.0,10.0,13,0.00,,,0.00,1097.000000,,2013-07-18 19:32:00,
2013-07-18 12:43:00,86.0,29.0,-100.00,NNW,330,5.0,10.0,13,0.00,,,0.00,1097.000000,,2013-07-18 19:43:00,
2013-07-18 13:11:00,90.0,28.0,-100.00,North,354,3.0,11.0,11,0.00,,,0.00,1180.000000,,2013-07-18 20:11:00,
2013-07-18 13:21:00,90.0,28.0,-100.00,North,354,3.0,11.0,11,0.00,,,0.00,1180.000000,,2013-07-18 20:21:00,
2013-07-18 13:31:00,90.0,28.0,-100.00,North,354,3.0,11.0,11,0.00,,,0.00,1180.000000,,2013-07-18 20:31:00,
2013-07-18 13:43:00,90.0,28.0,-100.00,North,354,3.0,11.0,11,0.00,,,0.00,1180.000000,,2013-07-18 20:43:00,
2013-07-18 14:11:00,93.0,26.0,-100.00,NNE,21,3.0,11.0,9,0.00,,,0.00,1188.000000,,2013-07-18 21:11:00,
2013-07-18 14:22:00,93.0,26.0,-100.00,NNE,21,3.0,11.0,9,0.00,,,0.00,1188.000000,,2013-07-18 21:22:00,
2013-07-18 14:32:00,93.0,26.0,-100.00,NNE,21,3.0,11.0,9,0.00,,,0.00,1188.000000,,2013-07-18 21:32:00,
2013-07-18 14:43:00,93.0,26.0,-100.00,NNE,21,3.0,11.0,9,0.00,,,0.00,1188.000000,,2013-07-18 21:43:00,
2013-07-18 15:22:00,95.0,30.0,-100.00,ENE,61,1.0,10.0,10,0.00,,,0.00,1138.000000,,2013-07-18 22:22:00,
2013-07-18 15:32:00,95.0,30.0,-100.00,ENE,61,1.0,10.0,10,0.00,,,0.00,1138.000000,,2013-07-18 22:32:00,
2013-07-18 15:42:00,95.0,30.0,-100.00,ENE,61,1.0,10.0,10,0.00,,,0.00,1138.000000,,2013-07-18 22:42:00,
2013-07-18 16:11:00,96.0,33.0,-100.00,WNW,294,3.0,13.0,11,0.00,,,0.00,1029.000000,,2013-07-18 23:11:00,
2013-07-18 16:22:00,96.0,33.0,-100.00,WNW,294,3.0,13.0,11,0.00,,,0.00,1029.000000,,2013-07-18 23:22:00,
2013-07-18 16:32:00,96.0,33.0,-100.00,WNW,294,3.0,13.0,11,0.00,,,0.00,1029.000000,,2013-07-18 23:32:00,
2013-07-18 16:42:00,96.0,33.0,-100.00,WNW,294,3.0,13.0,11,0.00,,,0.00,1029.000000,,2013-07-18 23:42:00,
2013-07-18 17:22:00,91.0,35.0,-100.00,WSW,248,8.0,20.0,14,0.00,,,0.00,852.000000,,2013-07-19 00:22:00,
2013-07-18 17:32:00,91.0,35.0,-100.00,WSW,248,8.0,20.0,14,0.00,,,0.00,852.000000,,2013-07-19 00:32:00,
2013-07-18 17:42:00,91.0,35.0,-100.00,WSW,248,8.0,20.0,14,0.00,,,0.00,852.000000,,2013-07-19 00:42:00,
2013-07-18 18:11:00,89.0,35.0,-100.00,SW,233,8.0,17.0,15,0.00,,,0.00,634.000000,,2013-07-19 01:11:00,
2013-07-18 18:22:00,89.0,35.0,-100.00,SW,233,8.0,17.0,15,0.00,,,0.00,634.000000,,2013-07-19 01:22:00,
2013-07-18 18:32:00,89.0,35.0,-100.00,SW,233,8.0,17.0,15,0.00,,,0.00,634.000000,,2013-07-19 01:32:00,
2013-07-18 18:42:00,89.0,35.0,-100.00,SW,233,8.0,17.0,15,0.00,,,0.00,634.000000,,2013-07-19 01:42:00,
2013-07-18 19:11:00,88.0,39.0,-100.00,SW,221,8.0,15.0,18,0.00,,,0.00,398.000000,,2013-07-19 02:11:00,
2013-07-18 19:22:00,88.0,39.0,-100.00,SW,221,8.0,15.0,18,0.00,,,0.00,398.000000,,2013-07-19 02:22:00,
2013-07-18 19:32:00,88.0,39.0,-100.00,SW,221,8.0,15.0,18,0.00,,,0.00,398.000000,,2013-07-19 02:32:00,
2013-07-18 19:42:00,88.0,39.0,-100.00,SW,221,8.0,15.0,18,0.00,,,0.00,398.000000,,2013-07-19 02:42:00,
2013-07-18 20:11:00,83.0,40.0,-100.00,SW,227,6.0,15.0,22,0.00,,,0.00,170.000000,,2013-07-19 03:11:00,
2013-07-18 20:22:00,83.0,40.0,-100.00,SW,227,6.0,15.0,22,0.00,,,0.00,170.000000,,2013-07-19 03:22:00,
2013-07-18 20:32:00,83.0,40.0,-100.00,SW,227,6.0,15.0,22,0.00,,,0.00,170.000000,,2013-07-19 03:32:00,
2013-07-18 20:42:00,83.0,40.0,-100.00,SW,227,6.0,15.0,22,0.00,,,0.00,170.000000,,2013-07-19 03:42:00,
2013-07-18 21:12:00,78.0,42.0,-100.00,SSW,203,6.0,14.0,28,0.00,,,0.00,10.000000,,2013-07-19 04:12:00,
2013-07-18 21:22:00,78.0,42.0,-100.00,SSW,203,6.0,14.0,28,0.00,,,0.00,10.000000,,2013-07-19 04:22:00,
2013-07-18 21:32:00,78.0,42.0,-100.00,SSW,203,6.0,14.0,28,0.00,,,0.00,10.000000,,2013-07-19 04:32:00,
2013-07-18 21:43:00,78.0,42.0,-100.00,SSW,203,6.0,14.0,28,0.00,,,0.00,10.000000,,2013-07-19 04:43:00,
2013-07-18 22:11:00,72.0,38.0,-100.00,SSE,154,0.0,13.0,29,0.00,,,0.00,0.000000,,2013-07-19 05:11:00,
2013-07-18 22:22:00,72.0,38.0,-100.00,SSE,154,0.0,13.0,29,0.00,,,0.00,0.000000,,2013-07-19 05:22:00,
2013-07-18 22:32:00,72.0,38.0,-100.00,SSE,154,0.0,13.0,29,0.00,,,0.00,0.000000,,2013-07-19 05:32:00,
2013-07-18 22:42:00,72.0,38.0,-100.00,SSE,154,0.0,13.0,29,0.00,,,0.00,0.000000,,2013-07-19 05:42:00,
2013-07-18 23:11:00,69.0,38.0,-100.00,SSE,151,2.0,5.0,32,0.00,,,0.00,0.000000,,2013-07-19 06:11:00,
2013-07-18 23:22:00,69.0,38.0,-100.00,SSE,151,2.0,5.0,32,0.00,,,0.00,0.000000,,2013-07-19 06:22:00,
2013-07-18 23:32:00,69.0,38.0,-100.00,SSE,151,2.0,5.0,32,0.00,,,0.00,0.000000,,2013-07-19 06:32:00,
2013-07-18 23:43:00,69.0,38.0,-100.00,SSE,151,2.0,5.0,32,0.00,,,0.00,0.000000,,2013-07-19 06:43:00,